createdAt,value
2019-06-07T00:00:40.667Z,19.80
2019-06-07T00:03:23.653Z,19.80
2019-06-07T00:05:45.860Z,19.80
2019-06-07T00:08:26.956Z,19.70
2019-06-07T00:10:50.197Z,19.70
2019-06-07T00:13:21.494Z,19.70
2019-06-07T00:15:52.513Z,19.70
2019-06-07T00:18:25.971Z,19.60
2019-06-07T00:23:26.891Z,19.60
2019-06-07T00:25:58.015Z,19.50
2019-06-07T00:28:29.365Z,19.60
2019-06-07T00:31:02.090Z,19.60
2019-06-07T00:33:33.542Z,19.50
2019-06-07T00:36:04.668Z,19.40
2019-06-07T00:38:36.055Z,19.40
2019-06-07T00:41:07.415Z,19.50
2019-06-07T00:43:38.759Z,19.40
2019-06-07T00:46:14.063Z,19.40
2019-06-07T00:48:42.944Z,19.30
2019-06-07T00:51:16.905Z,19.20
2019-06-07T00:53:46.903Z,19.30
2019-06-07T00:56:20.271Z,19.30
2019-06-07T00:59:10.193Z,19.30
2019-06-07T01:01:25.522Z,19.30
2019-06-07T01:03:57.100Z,19.20
2019-06-07T01:06:28.232Z,19.20
2019-06-07T01:08:59.440Z,19.20
2019-06-07T01:11:31.067Z,19.10
2019-06-07T01:14:02.361Z,19.00
2019-06-07T01:16:55.749Z,19.00
2019-06-07T01:19:08.230Z,19.10
2019-06-07T01:21:39.989Z,19.10
2019-06-07T01:26:41.239Z,19.10
2019-06-07T01:29:12.948Z,19.20
2019-06-07T01:31:44.675Z,19.20
2019-06-07T01:34:16.193Z,19.20
2019-06-07T01:36:47.376Z,19.20
2019-06-07T01:39:16.425Z,19.10
2019-06-07T01:41:47.449Z,19.10
2019-06-07T01:44:22.710Z,19.00
2019-06-07T01:46:51.984Z,18.90
2019-06-07T01:49:27.425Z,18.80
2019-06-07T01:51:56.016Z,18.70
2019-06-07T01:54:55.921Z,18.80
2019-06-07T01:57:01.038Z,18.70
2019-06-07T01:59:32.412Z,18.80
2019-06-07T02:02:03.462Z,18.70
2019-06-07T02:04:34.765Z,18.60
2019-06-07T02:07:06.553Z,18.50
2019-06-07T02:09:37.769Z,18.50
2019-06-07T02:12:25.113Z,18.50
2019-06-07T02:14:42.133Z,18.40
2019-06-07T02:17:13.966Z,18.40
2019-06-07T02:19:45.724Z,18.30
2019-06-07T02:22:17.646Z,18.30
2019-06-07T02:25:33.885Z,18.20
2019-06-07T02:27:24.643Z,18.10
2019-06-07T02:29:56.940Z,18.00
2019-06-07T02:32:34.714Z,18.00
2019-06-07T02:35:03.260Z,18.00
2019-06-07T02:37:36.844Z,18.00
2019-06-07T02:40:08.276Z,17.90
2019-06-07T02:42:42.657Z,17.80
2019-06-07T02:45:13.576Z,17.80
2019-06-07T02:47:46.495Z,17.70
2019-06-07T02:50:19.424Z,17.70
2019-06-07T02:52:50.823Z,17.60
2019-06-07T02:55:24.889Z,17.60
2019-06-07T02:57:55.515Z,17.60
2019-06-07T03:01:08.938Z,17.60
2019-06-07T03:03:22.248Z,17.60
2019-06-07T03:05:54.319Z,17.60
2019-06-07T03:08:26.323Z,17.60
2019-06-07T03:10:57.762Z,17.60
2019-06-07T03:13:31.929Z,17.60
2019-06-07T03:16:06.743Z,17.70
2019-06-07T03:19:07.731Z,17.80
2019-06-07T03:21:42.678Z,17.90
2019-06-07T03:24:13.788Z,18.00
2019-06-07T03:27:31.762Z,18.00
2019-06-07T03:29:17.139Z,18.00
2019-06-07T03:31:48.940Z,18.10
2019-06-07T03:34:20.517Z,18.10
2019-06-07T03:36:52.294Z,18.20
2019-06-07T03:39:25.261Z,18.30
2019-06-07T03:42:06.235Z,18.40
2019-06-07T03:44:35.087Z,18.50
2019-06-07T03:47:03.172Z,18.60
2019-06-07T03:49:37.507Z,18.70
2019-06-07T03:52:08.240Z,18.80
2019-06-07T03:54:39.917Z,19.00
2019-06-07T03:57:12.757Z,19.10
2019-06-07T03:59:45.846Z,19.20
2019-06-07T04:02:17.493Z,19.40
2019-06-07T04:04:49.777Z,19.50
2019-06-07T04:07:21.908Z,19.70
2019-06-07T04:09:53.597Z,19.80
2019-06-07T04:12:25.541Z,20.00
2019-06-07T04:14:57.237Z,20.10
2019-06-07T04:17:31.150Z,20.20
2019-06-07T04:20:02.308Z,20.20
2019-06-07T04:22:38.877Z,20.30
2019-06-07T04:25:10.198Z,20.50
2019-06-07T04:27:42.052Z,20.60
2019-06-07T04:30:13.844Z,20.70
2019-06-07T04:32:45.667Z,20.80
2019-06-07T04:35:17.474Z,20.90
2019-06-07T04:37:49.327Z,21.00
2019-06-07T04:40:21.080Z,21.00
2019-06-07T04:42:52.903Z,21.00
2019-06-07T04:45:40.673Z,21.10
2019-06-07T04:48:00.617Z,21.10
2019-06-07T04:50:34.284Z,21.10
2019-06-07T04:53:06.245Z,21.20
2019-06-07T04:55:39.855Z,21.30
2019-06-07T04:58:09.854Z,21.30
2019-06-07T05:00:54.185Z,21.40
2019-06-07T05:03:13.870Z,21.50
2019-06-07T05:05:45.051Z,21.50
2019-06-07T05:08:27.472Z,21.60
2019-06-07T05:10:48.926Z,21.60
2019-06-07T05:13:19.829Z,21.70
2019-06-07T05:15:50.800Z,21.70
2019-06-07T05:18:21.759Z,21.80
2019-06-07T05:20:52.693Z,21.80
2019-06-07T05:24:02.508Z,21.80
2019-06-07T05:25:56.259Z,21.80
2019-06-07T05:28:28.219Z,21.90
2019-06-07T05:31:04.361Z,21.90
2019-06-07T05:33:35.083Z,22.00
2019-06-07T05:36:04.261Z,22.10
2019-06-07T05:38:36.086Z,22.20
2019-06-07T05:41:07.743Z,22.30
2019-06-07T05:43:44.673Z,22.30
2019-06-07T05:46:15.783Z,22.40
2019-06-07T05:51:50.045Z,22.40
2019-06-07T05:54:23.156Z,22.40
2019-06-07T05:56:54.240Z,22.40
2019-06-07T05:59:25.351Z,22.40
2019-06-07T06:02:24.660Z,22.50
2019-06-07T06:05:29.910Z,22.50
2019-06-07T06:07:58.349Z,22.40
2019-06-07T06:10:31.428Z,22.30
2019-06-07T06:13:04.175Z,22.30
2019-06-07T06:26:00.357Z,22.50
2019-06-07T06:28:32.034Z,22.60
2019-06-07T06:31:07.593Z,22.60
2019-06-07T06:33:39.723Z,22.70
2019-06-07T06:36:11.861Z,22.80
2019-06-07T06:38:46.366Z,22.80
2019-06-07T06:41:18.357Z,22.80
2019-06-07T06:43:52.574Z,22.90
2019-06-07T06:46:38.183Z,22.80
2019-06-07T06:48:57.227Z,22.90
2019-06-07T06:52:00.305Z,22.80
2019-06-07T06:54:40.845Z,22.70
2019-06-07T06:57:19.058Z,22.60
2019-06-07T06:59:41.785Z,22.50
2019-06-07T07:02:15.145Z,22.40
2019-06-07T07:04:48.732Z,22.30
2019-06-07T07:07:22.063Z,22.20
2019-06-07T07:09:59.092Z,22.10
2019-06-07T07:12:28.193Z,22.10
2019-06-07T07:14:59.971Z,22.00
2019-06-07T07:17:47.603Z,21.80
2019-06-07T07:20:06.290Z,21.70
2019-06-07T07:22:38.433Z,21.60
2019-06-07T07:25:10.927Z,21.50
2019-06-07T07:27:44.633Z,21.50
2019-06-07T07:30:37.031Z,21.50
2019-06-07T07:32:54.177Z,21.50
2019-06-07T07:35:27.841Z,21.50
2019-06-07T07:38:00.306Z,21.60
2019-06-07T07:40:57.207Z,21.70
2019-06-07T07:43:11.005Z,21.90
2019-06-07T07:45:45.901Z,22.00
2019-06-07T07:48:18.652Z,22.20
2019-06-07T07:50:54.575Z,22.30
2019-06-07T07:53:24.981Z,22.40
2019-06-07T07:55:59.938Z,22.40
2019-06-07T07:58:29.982Z,22.50
2019-06-07T08:01:10.118Z,22.70
2019-06-07T08:03:34.938Z,23.00
2019-06-07T08:06:06.401Z,23.30
2019-06-07T08:08:38.137Z,23.60
2019-06-07T08:11:09.820Z,23.90
2019-06-07T08:13:41.542Z,24.20
2019-06-07T08:16:16.519Z,24.30
2019-06-07T08:18:50.937Z,24.30
2019-06-07T08:21:25.392Z,24.50
2019-06-07T08:23:58.293Z,25.00
2019-06-07T08:26:27.928Z,25.70
2019-06-07T08:29:02.663Z,26.00
2019-06-07T08:31:32.480Z,26.20
2019-06-07T08:34:04.161Z,26.20
2019-06-07T08:36:42.391Z,26.20
2019-06-07T08:39:10.416Z,26.20
2019-06-07T08:41:53.805Z,26.40
2019-06-07T08:44:23.327Z,26.70
2019-06-07T08:46:55.645Z,27.30
2019-06-07T08:49:22.471Z,27.90
2019-06-07T08:51:57.712Z,27.90
2019-06-07T08:54:25.818Z,27.60
2019-06-07T08:57:17.981Z,27.30
2019-06-07T08:59:29.023Z,27.00
2019-06-07T09:02:03.553Z,26.80
2019-06-07T09:04:32.377Z,26.80
2019-06-07T09:07:14.860Z,26.90
2019-06-07T09:09:35.747Z,27.00
2019-06-07T09:12:10.718Z,26.70
2019-06-07T09:14:58.964Z,26.50
2019-06-07T09:17:12.606Z,26.10
2019-06-07T09:19:43.794Z,26.10
2019-06-07T09:22:14.704Z,26.20
2019-06-07T09:24:45.776Z,26.30
2019-06-07T09:27:16.996Z,26.50
2019-06-07T09:29:48.375Z,27.00
2019-06-07T09:32:19.328Z,27.40
2019-06-07T09:34:50.329Z,27.60
2019-06-07T09:38:03.577Z,27.80
2019-06-07T09:39:53.089Z,28.00
2019-06-07T09:42:23.830Z,28.30
2019-06-07T09:44:54.665Z,28.40
2019-06-07T09:47:32.442Z,28.40
2019-06-07T09:50:02.359Z,28.80
2019-06-07T09:52:31.325Z,29.60
2019-06-07T09:55:09.072Z,29.90
2019-06-07T09:57:34.724Z,30.30
2019-06-07T10:00:38.168Z,30.70
2019-06-07T10:02:42.449Z,31.10
2019-06-07T10:05:14.303Z,31.40
2019-06-07T10:08:00.167Z,31.00
2019-06-07T10:12:50.679Z,30.60
2019-06-07T10:15:21.662Z,30.10
2019-06-07T10:17:52.587Z,29.50
2019-06-07T10:20:23.598Z,29.00
2019-06-07T10:22:54.484Z,29.20
2019-06-07T10:25:25.356Z,29.80
2019-06-07T10:27:56.230Z,30.30
2019-06-07T10:30:27.273Z,30.80
2019-06-07T10:32:58.086Z,31.10
2019-06-07T10:35:29.854Z,31.40
2019-06-07T10:38:00.702Z,31.60
2019-06-07T10:40:32.750Z,31.70
2019-06-07T10:43:05.055Z,31.50
2019-06-07T10:45:35.934Z,31.30
2019-06-07T10:48:07.710Z,31.30
2019-06-07T10:50:38.481Z,31.30
2019-06-07T10:53:10.585Z,31.40
2019-06-07T10:55:41.814Z,31.40
2019-06-07T10:58:13.283Z,31.40
2019-06-07T11:00:44.378Z,31.30
2019-06-07T11:03:15.144Z,31.40
2019-06-07T11:05:45.934Z,31.40
2019-06-07T11:08:16.864Z,31.40
2019-06-07T11:10:47.677Z,31.60
2019-06-07T11:13:18.524Z,31.30
2019-06-07T11:15:49.398Z,30.80
2019-06-07T11:18:20.348Z,30.90
2019-06-07T11:20:51.317Z,31.10
2019-06-07T11:23:22.424Z,31.30
2019-06-07T11:25:53.295Z,31.50
2019-06-07T11:28:24.151Z,31.60
2019-06-07T11:30:54.978Z,31.70
2019-06-07T11:33:25.719Z,31.80
2019-06-07T11:35:56.652Z,31.90
2019-06-07T11:38:27.523Z,32.00
2019-06-07T11:40:58.426Z,32.00
2019-06-07T11:43:29.394Z,32.10
2019-06-07T11:46:00.710Z,31.20
2019-06-07T11:48:31.600Z,30.50
2019-06-07T11:51:02.519Z,30.20
2019-06-07T11:53:33.481Z,30.00
2019-06-07T11:56:04.545Z,29.50
2019-06-07T11:58:35.484Z,29.00
2019-06-07T12:01:07.578Z,28.50
2019-06-07T12:03:38.718Z,27.90
2019-06-07T12:06:10.028Z,27.30
2019-06-07T12:08:41.046Z,26.90
2019-06-07T12:11:12.189Z,26.70
2019-06-07T12:13:44.260Z,26.40
2019-06-07T12:16:15.463Z,26.20
2019-06-07T12:18:46.449Z,26.00
2019-06-07T12:21:18.031Z,25.90
2019-06-07T12:23:49.173Z,25.90
2019-06-07T12:26:20.684Z,25.80
2019-06-07T12:28:51.821Z,25.80
2019-06-07T12:31:22.767Z,25.70
2019-06-07T12:33:53.737Z,25.60
2019-06-07T12:36:24.553Z,25.30
2019-06-07T12:38:55.289Z,25.10
2019-06-07T12:41:26.463Z,24.90
2019-06-07T12:43:59.249Z,24.80
2019-06-07T12:46:29.888Z,24.60
2019-06-07T12:49:00.822Z,24.50
2019-06-07T12:51:31.721Z,24.40
2019-06-07T12:54:02.578Z,24.30
2019-06-07T12:56:33.384Z,24.20
2019-06-07T12:59:04.367Z,24.10
2019-06-07T13:01:35.203Z,24.00
2019-06-07T13:04:05.254Z,23.90
2019-06-07T13:06:36.174Z,23.80
2019-06-07T13:09:08.165Z,23.80
2019-06-07T13:11:39.479Z,23.70
2019-06-07T13:14:10.346Z,23.60
2019-06-07T13:16:41.210Z,23.50
2019-06-07T13:19:12.107Z,23.50
2019-06-07T13:21:43.043Z,23.50
2019-06-07T13:24:13.833Z,23.70
2019-06-07T13:26:44.657Z,23.90
2019-06-07T13:29:16.422Z,24.20
2019-06-07T13:31:47.506Z,24.70
2019-06-07T13:34:18.687Z,25.40
2019-06-07T13:36:50.058Z,25.90
2019-06-07T13:39:24.585Z,26.40
2019-06-07T13:41:54.416Z,27.00
2019-06-07T13:44:25.774Z,27.50
2019-06-07T13:46:57.063Z,27.80
2019-06-07T13:49:27.911Z,28.00
2019-06-07T13:51:58.773Z,27.90
2019-06-07T13:54:29.772Z,27.80
2019-06-07T13:57:02.870Z,28.10
2019-06-07T13:59:33.554Z,28.50
2019-06-07T14:02:04.665Z,28.80
2019-06-07T14:04:35.621Z,28.70
2019-06-07T14:07:06.560Z,28.10
2019-06-07T14:09:37.505Z,27.40
2019-06-07T14:12:12.756Z,26.80
2019-06-07T14:14:46.805Z,26.70
2019-06-07T14:17:18.773Z,26.60
2019-06-07T14:20:13.675Z,26.50
2019-06-07T14:23:07.471Z,26.30
2019-06-07T14:25:56.624Z,26.00
2019-06-07T14:28:33.805Z,25.90
2019-06-07T14:31:07.079Z,25.70
2019-06-07T14:33:58.588Z,25.60
2019-06-07T14:36:47.640Z,25.40
2019-06-07T14:39:27.009Z,25.20
2019-06-07T14:42:09.193Z,25.10
2019-06-07T14:44:41.816Z,24.90
2019-06-07T14:47:17.243Z,24.80
2019-06-07T14:49:54.380Z,24.70
2019-06-07T14:52:30.694Z,24.60
2019-06-07T14:55:05.282Z,24.40
2019-06-07T14:57:56.921Z,24.40
2019-06-07T15:00:58.479Z,24.30
2019-06-07T15:03:46.676Z,24.20
2019-06-07T15:06:22.321Z,24.20
2019-06-07T15:09:12.728Z,24.20
2019-06-07T15:11:47.966Z,24.10
2019-06-07T15:14:19.710Z,24.10
2019-06-07T15:16:51.576Z,24.00
2019-06-07T15:19:24.082Z,24.00
2019-06-07T15:21:54.959Z,23.90
2019-06-07T15:24:25.851Z,23.90
2019-06-07T15:26:57.914Z,23.90
2019-06-07T15:29:29.759Z,23.80
2019-06-07T15:32:00.894Z,23.80
2019-06-07T15:34:32.367Z,23.90
2019-06-07T15:37:03.576Z,23.90
2019-06-07T15:39:34.664Z,23.90
2019-06-07T15:42:05.954Z,23.90
2019-06-07T15:44:37.414Z,23.90
2019-06-07T15:47:08.346Z,23.80
2019-06-07T15:49:40.327Z,23.90
2019-06-07T15:52:11.429Z,23.90
2019-06-07T15:54:42.233Z,23.90
2019-06-07T15:57:13.269Z,24.00
2019-06-07T15:59:44.214Z,24.10
2019-06-07T16:02:15.366Z,24.20
2019-06-07T16:04:46.070Z,24.60
2019-06-07T16:07:17.008Z,25.20
2019-06-07T16:09:47.771Z,25.70
2019-06-07T16:12:18.644Z,26.00
2019-06-07T16:14:49.355Z,26.10
2019-06-07T16:17:21.465Z,26.20
2019-06-07T16:19:52.330Z,26.40
2019-06-07T16:22:23.118Z,26.50
2019-06-07T16:24:53.861Z,26.50
2019-06-07T16:27:24.645Z,26.70
2019-06-07T16:29:56.480Z,26.70
2019-06-07T16:32:27.225Z,26.80
2019-06-07T16:34:57.995Z,26.70
2019-06-07T16:37:28.878Z,26.60
2019-06-07T16:39:59.796Z,26.40
2019-06-07T16:42:30.833Z,26.20
2019-06-07T16:45:01.675Z,26.10
2019-06-07T16:47:32.465Z,25.90
2019-06-07T16:50:03.386Z,25.70
2019-06-07T16:52:34.134Z,25.50
2019-06-07T16:55:05.226Z,25.30
2019-06-07T16:57:36.669Z,25.20
2019-06-07T17:00:08.816Z,25.00
2019-06-07T17:02:40.222Z,24.90
2019-06-07T17:05:12.260Z,24.70
2019-06-07T17:07:44.653Z,24.60
2019-06-07T17:10:15.642Z,24.50
2019-06-07T17:12:46.930Z,24.40
2019-06-07T17:15:19.046Z,24.30
2019-06-07T17:17:49.928Z,24.30
2019-06-07T17:20:21.565Z,24.20
2019-06-07T17:22:52.390Z,24.00
2019-06-07T17:25:23.232Z,23.80
2019-06-07T17:27:54.044Z,23.70
2019-06-07T17:30:24.937Z,23.60
2019-06-07T17:32:59.248Z,23.60
2019-06-07T17:35:28.594Z,23.50
2019-06-07T17:37:59.504Z,23.40
2019-06-07T17:40:30.318Z,23.40
2019-06-07T17:43:01.116Z,23.30
2019-06-07T17:45:31.908Z,23.30
2019-06-07T17:48:03.124Z,23.30
2019-06-07T17:50:34.240Z,23.30
2019-06-07T17:53:05.160Z,23.30
2019-06-07T17:55:36.584Z,23.20
2019-06-07T17:58:07.682Z,23.00
2019-06-07T18:00:53.026Z,22.70
2019-06-07T18:03:24.244Z,22.50
2019-06-07T18:05:55.297Z,22.30
2019-06-07T18:08:26.644Z,22.00
2019-06-07T18:10:57.451Z,21.80
2019-06-07T18:13:28.357Z,21.60
2019-06-07T18:15:59.916Z,21.40
2019-06-07T18:18:31.010Z,21.30
2019-06-07T18:21:01.814Z,21.20
2019-06-07T18:23:32.645Z,21.00
2019-06-07T18:26:03.495Z,20.90
2019-06-07T18:28:32.503Z,20.80
2019-06-07T18:31:03.451Z,20.60
2019-06-07T18:33:34.302Z,20.50
2019-06-07T18:36:05.632Z,20.40
2019-06-07T18:41:17.328Z,20.40
2019-06-07T18:43:49.178Z,20.30
2019-06-07T18:46:21.355Z,20.20
2019-06-07T18:48:52.514Z,20.00
2019-06-07T18:51:23.654Z,19.90
2019-06-07T18:53:58.119Z,19.80
2019-06-07T18:56:30.804Z,19.70
2019-06-07T18:59:04.945Z,19.60
2019-06-07T19:01:40.164Z,19.50
2019-06-07T19:04:11.273Z,19.50
2019-06-07T19:06:42.035Z,19.40
2019-06-07T19:09:12.818Z,19.40
2019-06-07T19:11:43.639Z,19.30
2019-06-07T19:14:14.391Z,19.20
2019-06-07T19:16:45.122Z,19.20
2019-06-07T19:19:15.973Z,19.10
2019-06-07T19:21:46.751Z,19.00
2019-06-07T19:24:17.530Z,18.90
2019-06-07T19:26:48.275Z,18.80
2019-06-07T19:29:23.324Z,18.80
2019-06-07T19:32:11.011Z,18.70
2019-06-07T19:34:46.720Z,18.70
2019-06-07T19:37:21.194Z,18.60
2019-06-07T19:39:57.939Z,18.60
2019-06-07T19:42:47.909Z,18.60
2019-06-07T19:45:39.782Z,18.50
2019-06-07T19:48:32.798Z,18.50
2019-06-07T19:51:22.873Z,18.50
2019-06-07T19:54:10.293Z,18.50
2019-06-07T19:57:01.642Z,18.50
2019-06-07T19:59:35.914Z,18.50
2019-06-07T20:02:29.808Z,18.50
2019-06-07T20:05:18.835Z,18.50
2019-06-07T20:07:54.464Z,18.40
2019-06-07T20:10:43.028Z,18.50
2019-06-07T20:13:37.859Z,18.50
2019-06-07T20:16:29.170Z,18.60
2019-06-07T20:19:17.765Z,18.60
2019-06-07T20:22:09.753Z,18.60
2019-06-07T20:25:05.458Z,18.60
2019-06-07T20:27:53.364Z,18.60
2019-06-07T20:30:44.284Z,18.70
2019-06-07T20:33:43.093Z,18.60
2019-06-07T20:36:34.168Z,18.70
2019-06-07T20:39:36.010Z,18.70
2019-06-07T20:42:39.148Z,18.70
2019-06-07T20:45:34.914Z,18.80
2019-06-07T20:48:26.136Z,18.80
2019-06-07T20:54:03.136Z,18.80
2019-06-07T20:57:02.644Z,18.80
2019-06-07T21:00:10.549Z,18.70
2019-06-07T21:03:00.995Z,18.60
2019-06-07T21:05:50.328Z,18.60
2019-06-07T21:08:44.388Z,18.60
2019-06-07T21:11:36.427Z,18.60
2019-06-07T21:14:32.979Z,18.50
2019-06-07T21:17:27.408Z,18.50
2019-06-07T21:20:02.807Z,18.50
2019-06-07T21:22:58.911Z,18.40
2019-06-07T21:33:36.507Z,18.50
2019-06-07T21:39:08.269Z,18.40
2019-06-07T21:41:57.069Z,18.30
2019-06-07T21:44:44.771Z,18.20
2019-06-07T21:47:32.229Z,18.10
2019-06-07T21:50:19.270Z,18.00
2019-06-07T21:53:06.463Z,18.10
2019-06-07T21:58:22.003Z,18.00
2019-06-07T22:01:17.961Z,18.00
2019-06-07T22:04:05.317Z,18.20
2019-06-07T22:09:19.324Z,18.20
2019-06-07T22:11:52.461Z,18.20
2019-06-07T22:14:36.050Z,18.20
2019-06-07T22:17:10.940Z,18.20
2019-06-07T22:19:42.458Z,18.20
2019-06-07T22:22:14.908Z,18.20
2019-06-07T22:24:46.658Z,18.20
2019-06-07T22:27:18.468Z,18.20
2019-06-07T22:29:50.119Z,18.20
2019-06-07T22:32:21.848Z,18.10
2019-06-07T22:34:53.507Z,18.10
2019-06-07T22:37:25.238Z,18.00
2019-06-07T22:39:56.892Z,17.90
2019-06-07T22:42:28.599Z,18.00
2019-06-07T22:45:00.341Z,18.00
2019-06-07T22:47:32.804Z,18.10
2019-06-07T22:50:05.005Z,18.20
2019-06-07T22:52:36.189Z,18.20
2019-06-07T22:55:07.725Z,18.20
2019-06-07T22:58:04.120Z,18.20
2019-06-07T23:00:36.575Z,18.10
2019-06-07T23:03:08.526Z,18.10
2019-06-07T23:05:39.983Z,18.00
2019-06-07T23:08:11.380Z,17.90
2019-06-07T23:10:43.621Z,17.90
2019-06-07T23:13:15.485Z,17.90
2019-06-07T23:15:47.400Z,17.90
2019-06-07T23:18:19.766Z,17.90
2019-06-07T23:20:51.626Z,17.90
2019-06-07T23:23:23.623Z,17.90
2019-06-07T23:25:55.494Z,17.90
2019-06-07T23:28:27.257Z,17.90
2019-06-07T23:30:58.305Z,17.80
2019-06-07T23:33:30.001Z,17.80
2019-06-07T23:36:00.967Z,17.80
2019-06-07T23:38:31.964Z,17.70
2019-06-07T23:41:03.882Z,17.80
2019-06-07T23:43:34.940Z,17.80
2019-06-07T23:46:06.153Z,17.80
2019-06-07T23:48:37.152Z,17.80
2019-06-07T23:51:08.169Z,17.80
2019-06-07T23:53:39.177Z,17.90
2019-06-07T23:56:10.218Z,17.80
2019-06-07T23:58:42.040Z,17.80
